»·PEaware :: N7565G KCRQ-KSNA

N7565G :: KCRQ-KSNA

FLIGHT INFORMATION

Flight Status: Arrived
Operator: Privately registered:
United States
More flights under this callsign
Pilot: Reuben K. (13591)
Aircraft: CESSNA 208 CARAVAN
(C208)
More flights by this aircraft type
Origin: KCRQ McClellan-Palomar
United States
Destination: KSNA John Wayne-Orange Co
United States
More flights between these airports :: More routes between these airports
Route: HURSI OORAH OFREE DANAH BALBO KSNA
File this flight plan on PilotEdge
Remarks: VFR Flight
Altitude:
(Current/Filed)
5,500ft
Speed:
(Current/Filed)
115kts
Departed: 10-Feb-19 07:06 PM
Arrived: 10-Feb-19 07:32 PM
Distance/Time
Traveled:
44nm/0:25
Distance/Time
To Go:
Arrived

Flight Plot

Page will automatically refresh every two minutes.

Flight plan parsing failed; only flown route is shown


Map Options




Map Legend


Flown Route
Filed Route
Departure Airport
Arrival Airport
Navaid (VOR, NDB)
Fix

Horizontal Profiles

Position Reports

Time Latitude Longitude Heading Altitude Ground
Speed
10-Feb-19 18:28 33.127241 -117.278512 346 336ft 0kts
10-Feb-19 18:29 33.127241 -117.278512 346 336ft 0kts
10-Feb-19 18:30 33.127241 -117.278512 346 336ft 0kts
10-Feb-19 18:31 33.127241 -117.278512 346 336ft 0kts
10-Feb-19 18:32 33.127241 -117.278512 346 336ft 0kts
10-Feb-19 18:33 33.127241 -117.278512 346 336ft 0kts
10-Feb-19 18:34 33.127241 -117.278512 346 336ft 0kts
10-Feb-19 18:35 33.127241 -117.278512 346 336ft 0kts
10-Feb-19 18:36 33.127241 -117.278512 346 336ft 0kts
10-Feb-19 18:37 33.127241 -117.278512 346 336ft 0kts
10-Feb-19 18:38 33.127241 -117.278512 346 336ft 0kts
10-Feb-19 18:39 33.127241 -117.278512 346 336ft 0kts
10-Feb-19 18:40 33.127241 -117.278512 346 336ft 0kts
10-Feb-19 18:41 33.127241 -117.278512 346 336ft 0kts
10-Feb-19 18:42 33.127241 -117.278512 346 336ft 0kts
10-Feb-19 18:43 33.127241 -117.278512 346 336ft 0kts
10-Feb-19 18:44 33.127241 -117.278512 346 336ft 0kts
10-Feb-19 18:45 33.127241 -117.278512 346 336ft 0kts
10-Feb-19 18:46 33.127241 -117.278512 346 336ft 0kts
10-Feb-19 18:47 33.127241 -117.278512 346 336ft 0kts
10-Feb-19 18:48 33.127241 -117.278512 346 336ft 0kts
10-Feb-19 18:49 33.127241 -117.278512 346 336ft 0kts
10-Feb-19 18:50 33.127241 -117.278512 346 336ft 0kts
10-Feb-19 18:51 33.127241 -117.278512 346 336ft 0kts
10-Feb-19 18:52 33.127241 -117.278512 346 336ft 0kts
10-Feb-19 18:53 33.127241 -117.278512 346 336ft 0kts
10-Feb-19 18:54 33.127241 -117.278512 346 336ft 0kts
10-Feb-19 18:55 33.127302 -117.278531 345 336ft 3kts
10-Feb-19 18:56 33.127947 -117.276828 77 336ft 8kts
10-Feb-19 18:57 33.128411 -117.273383 100 336ft 10kts
10-Feb-19 18:58 33.128590 -117.272864 23 336ft 0kts
10-Feb-19 18:59 33.128590 -117.272864 23 336ft 0kts
10-Feb-19 19:00 33.128590 -117.272864 23 336ft 0kts
10-Feb-19 19:01 33.128591 -117.272863 23 336ft 0kts
10-Feb-19 19:02 33.128591 -117.272863 23 336ft 0kts
10-Feb-19 19:03 33.128594 -117.272861 23 336ft 0kts
10-Feb-19 19:04 33.128595 -117.272861 23 336ft 0kts
10-Feb-19 19:05 33.129124 -117.274383 259 336ft 51kts
10-Feb-19 19:06 33.123580 -117.307416 265 1742ft 110kts
10-Feb-19 19:07 33.132449 -117.340913 323 3426ft 114kts
10-Feb-19 19:08 33.155218 -117.373030 340 4350ft 157kts
10-Feb-19 19:09 33.199420 -117.372948 313 3920ft 196kts
10-Feb-19 19:10 33.217157 -117.427049 275 4325ft 183kts
10-Feb-19 19:11 33.220436 -117.485599 275 4136ft 166kts
10-Feb-19 19:12 33.230996 -117.535152 296 4096ft 149kts
10-Feb-19 19:13 33.247123 -117.577835 293 4194ft 139kts
10-Feb-19 19:14 33.264482 -117.619297 315 4179ft 141kts
10-Feb-19 19:15 33.298445 -117.642165 329 4180ft 140kts
10-Feb-19 19:16 33.331587 -117.667052 328 4180ft 140kts
10-Feb-19 19:17 33.365543 -117.683517 356 4181ft 140kts
10-Feb-19 19:18 33.404400 -117.687337 356 4180ft 140kts
10-Feb-19 19:19 33.441733 -117.690942 356 4255ft 122kts
10-Feb-19 19:20 33.472813 -117.700907 335 3849ft 120kts
10-Feb-19 19:21 33.500480 -117.721837 315 3401ft 121kts
10-Feb-19 19:22 33.521128 -117.747052 315 3377ft 94kts
10-Feb-19 19:23 33.538985 -117.768746 319 2870ft 124kts
10-Feb-19 19:24 33.567769 -117.794841 330 1920ft 130kts
10-Feb-19 19:25 33.597379 -117.817073 323 1745ft 127kts
10-Feb-19 19:26 33.625979 -117.841171 325 1277ft 127kts
10-Feb-19 19:27 33.653176 -117.858138 358 875ft 118kts
10-Feb-19 19:28 33.675827 -117.839526 33 1005ft 108kts
10-Feb-19 19:29 33.695272 -117.834127 298 1073ft 85kts
10-Feb-19 19:30 33.687707 -117.859127 211 224ft 81kts
10-Feb-19 19:31 33.677151 -117.865979 142 57ft 5kts
10-Feb-19 19:32 33.676913 -117.865675 116 55ft 0kts
10-Feb-19 19:33 33.676913 -117.865675 116 55ft 0kts
10-Feb-19 19:34 33.676913 -117.865675 116 55ft 0kts
10-Feb-19 19:35 33.676642 -117.865738 198 55ft 1kts
10-Feb-19 19:36 33.675619 -117.866152 207 58ft 5kts
10-Feb-19 19:37 33.673035 -117.867375 225 61ft 11kts
10-Feb-19 19:38 33.671150 -117.867849 201 61ft 0kts
10-Feb-19 19:39 33.671150 -117.867849 202 61ft 0kts
10-Feb-19 19:40 33.671150 -117.867849 202 61ft 0kts

Navigation Log

Ident Type
Flight plan parsing failed, navigation log unavailable